Terminal Aerodrome Forecast
Issued by NWS

Current Version | Previous Version | Text Only | Print | Product List | Glossary On
Versions: 1 2 3 4 5 6 7 8 9 10 11 12 13 14 15 16 17 18 19
000
FTUS41 KLWX 151200 AAA
TAFMTN
TAF AMD
KMTN 151229Z 1512/1612 16013KT 6SM -SHRA OVC008
     FM151330 19015G30KT 1/2SM +SHRA OVC009
     FM151400 19014KT 1SM SHRA OVC009
     FM151430 20014KT 3SM -SHRA OVC015
     FM151500 18016KT 2SM SHRA OVC008 WS020/19045KT
     FM151600 18016KT 2SM SHRA OVC010
     FM152000 30018G28KT 3SM -SHRA OVC010
     FM160000 33020G30KT P6SM SCT025 OVC030
     FM160300 32020G29KT P6SM SCT040 BKN060
     FM160500 32019G29KT P6SM FEW040 SCT060=

USA.gov is the U.S. government's official web portal to all federal, state and local government web resources and services.